sensor_id;sensor_type;location;lat;lon;timestamp;P1;durP1;ratioP1;P2;durP2;ratioP2
36715;SDS011;22699;51.034;3.730;2023-02-28T00:00:29;7.88;;;4.50;;
36715;SDS011;22699;51.034;3.730;2023-02-28T00:02:54;7.43;;;4.53;;
36715;SDS011;22699;51.034;3.730;2023-02-28T00:05:21;6.88;;;4.72;;
36715;SDS011;22699;51.034;3.730;2023-02-28T00:07:48;9.98;;;4.43;;
36715;SDS011;22699;51.034;3.730;2023-02-28T00:10:16;9.05;;;5.13;;
36715;SDS011;22699;51.034;3.730;2023-02-28T00:12:48;7.45;;;4.95;;
36715;SDS011;22699;51.034;3.730;2023-02-28T00:15:17;7.22;;;3.83;;
36715;SDS011;22699;51.034;3.730;2023-02-28T00:17:43;8.00;;;4.65;;
36715;SDS011;22699;51.034;3.730;2023-02-28T00:20:10;9.95;;;4.97;;
36715;SDS011;22699;51.034;3.730;2023-02-28T00:22:43;5.93;;;4.45;;
36715;SDS011;22699;51.034;3.730;2023-02-28T00:25:12;8.05;;;4.78;;
36715;SDS011;22699;51.034;3.730;2023-02-28T00:27:40;6.25;;;4.72;;
36715;SDS011;22699;51.034;3.730;2023-02-28T00:30:08;7.55;;;5.10;;
36715;SDS011;22699;51.034;3.730;2023-02-28T00:32:36;7.38;;;5.00;;
36715;SDS011;22699;51.034;3.730;2023-02-28T00:35:01;10.02;;;5.03;;
36715;SDS011;22699;51.034;3.730;2023-02-28T00:37:31;7.40;;;5.50;;
36715;SDS011;22699;51.034;3.730;2023-02-28T00:39:56;6.35;;;4.72;;
36715;SDS011;22699;51.034;3.730;2023-02-28T00:42:22;5.60;;;4.97;;
36715;SDS011;22699;51.034;3.730;2023-02-28T00:44:48;9.15;;;5.72;;
36715;SDS011;22699;51.034;3.730;2023-02-28T00:47:14;7.63;;;4.95;;
36715;SDS011;22699;51.034;3.730;2023-02-28T00:49:40;7.53;;;5.28;;
36715;SDS011;22699;51.034;3.730;2023-02-28T00:52:06;5.75;;;4.65;;
36715;SDS011;22699;51.034;3.730;2023-02-28T00:54:32;6.43;;;5.18;;
36715;SDS011;22699;51.034;3.730;2023-02-28T00:56:59;7.65;;;4.90;;
36715;SDS011;22699;51.034;3.730;2023-02-28T00:59:24;8.65;;;6.30;;
36715;SDS011;22699;51.034;3.730;2023-02-28T01:01:52;8.18;;;5.45;;
36715;SDS011;22699;51.034;3.730;2023-02-28T01:04:18;8.40;;;5.32;;
36715;SDS011;22699;51.034;3.730;2023-02-28T01:06:44;6.72;;;5.40;;
36715;SDS011;22699;51.034;3.730;2023-02-28T01:09:10;9.07;;;5.20;;
36715;SDS011;22699;51.034;3.730;2023-02-28T01:11:39;10.48;;;5.68;;
36715;SDS011;22699;51.034;3.730;2023-02-28T01:14:06;9.13;;;5.53;;
36715;SDS011;22699;51.034;3.730;2023-02-28T01:16:33;7.60;;;5.47;;
36715;SDS011;22699;51.034;3.730;2023-02-28T01:18:59;7.07;;;5.88;;
36715;SDS011;22699;51.034;3.730;2023-02-28T01:21:24;10.85;;;5.70;;
36715;SDS011;22699;51.034;3.730;2023-02-28T01:23:50;9.20;;;6.03;;
36715;SDS011;22699;51.034;3.730;2023-02-28T01:26:17;6.88;;;5.93;;
36715;SDS011;22699;51.034;3.730;2023-02-28T01:28:45;9.40;;;7.10;;
36715;SDS011;22699;51.034;3.730;2023-02-28T01:31:10;8.40;;;4.95;;
36715;SDS011;22699;51.034;3.730;2023-02-28T01:33:36;9.75;;;5.78;;
36715;SDS011;22699;51.034;3.730;2023-02-28T01:36:05;10.27;;;6.00;;
36715;SDS011;22699;51.034;3.730;2023-02-28T01:38:32;10.45;;;6.35;;
36715;SDS011;22699;51.034;3.730;2023-02-28T01:40:58;6.60;;;5.50;;
36715;SDS011;22699;51.034;3.730;2023-02-28T01:43:27;7.30;;;5.60;;
36715;SDS011;22699;51.034;3.730;2023-02-28T01:45:57;8.65;;;6.30;;
36715;SDS011;22699;51.034;3.730;2023-02-28T01:48:27;9.10;;;5.60;;
36715;SDS011;22699;51.034;3.730;2023-02-28T01:50:56;8.93;;;5.40;;
36715;SDS011;22699;51.034;3.730;2023-02-28T01:55:57;7.53;;;6.32;;
36715;SDS011;22699;51.034;3.730;2023-02-28T01:58:23;8.75;;;5.85;;
36715;SDS011;22699;51.034;3.730;2023-02-28T02:00:51;8.70;;;6.18;;
36715;SDS011;22699;51.034;3.730;2023-02-28T02:03:18;9.77;;;6.70;;
36715;SDS011;22699;51.034;3.730;2023-02-28T02:05:46;7.30;;;5.75;;
36715;SDS011;22699;51.034;3.730;2023-02-28T02:08:13;6.53;;;5.85;;
36715;SDS011;22699;51.034;3.730;2023-02-28T02:10:47;7.97;;;6.45;;
36715;SDS011;22699;51.034;3.730;2023-02-28T02:13:25;10.70;;;6.65;;
36715;SDS011;22699;51.034;3.730;2023-02-28T02:16:18;11.80;;;6.25;;
36715;SDS011;22699;51.034;3.730;2023-02-28T02:19:26;7.93;;;6.43;;
36715;SDS011;22699;51.034;3.730;2023-02-28T02:36:24;10.95;;;6.97;;
36715;SDS011;22699;51.034;3.730;2023-02-28T02:39:06;8.85;;;6.28;;
36715;SDS011;22699;51.034;3.730;2023-02-28T02:44:23;9.48;;;6.95;;
36715;SDS011;22699;51.034;3.730;2023-02-28T02:47:07;8.95;;;6.50;;
36715;SDS011;22699;51.034;3.730;2023-02-28T02:49:36;6.85;;;6.15;;
36715;SDS011;22699;51.034;3.730;2023-02-28T02:52:11;11.23;;;6.72;;
36715;SDS011;22699;51.034;3.730;2023-02-28T02:54:40;7.55;;;6.10;;
36715;SDS011;22699;51.034;3.730;2023-02-28T02:57:17;8.07;;;6.05;;
36715;SDS011;22699;51.034;3.730;2023-02-28T02:59:49;8.73;;;6.53;;
36715;SDS011;22699;51.034;3.730;2023-02-28T03:02:18;8.98;;;6.13;;
36715;SDS011;22699;51.034;3.730;2023-02-28T03:04:51;11.48;;;6.45;;
36715;SDS011;22699;51.034;3.730;2023-02-28T03:07:25;10.60;;;6.50;;
36715;SDS011;22699;51.034;3.730;2023-02-28T03:09:51;8.85;;;7.10;;
36715;SDS011;22699;51.034;3.730;2023-02-28T03:12:18;9.27;;;6.90;;
36715;SDS011;22699;51.034;3.730;2023-02-28T03:20:34;9.82;;;5.85;;
36715;SDS011;22699;51.034;3.730;2023-02-28T03:23:10;9.35;;;6.18;;
36715;SDS011;22699;51.034;3.730;2023-02-28T03:25:56;10.32;;;6.35;;
36715;SDS011;22699;51.034;3.730;2023-02-28T03:28:34;8.50;;;6.30;;
36715;SDS011;22699;51.034;3.730;2023-02-28T03:31:30;10.38;;;8.23;;
36715;SDS011;22699;51.034;3.730;2023-02-28T03:34:14;7.82;;;6.65;;
36715;SDS011;22699;51.034;3.730;2023-02-28T03:36:51;7.95;;;6.68;;
36715;SDS011;22699;51.034;3.730;2023-02-28T03:39:37;19.33;;;7.82;;
36715;SDS011;22699;51.034;3.730;2023-02-28T03:42:35;9.02;;;6.38;;
36715;SDS011;22699;51.034;3.730;2023-02-28T03:45:23;13.67;;;7.90;;
36715;SDS011;22699;51.034;3.730;2023-02-28T03:47:53;10.77;;;6.93;;
36715;SDS011;22699;51.034;3.730;2023-02-28T03:52:49;7.32;;;6.55;;
36715;SDS011;22699;51.034;3.730;2023-02-28T03:55:26;7.55;;;6.07;;
36715;SDS011;22699;51.034;3.730;2023-02-28T03:58:00;10.80;;;6.85;;
36715;SDS011;22699;51.034;3.730;2023-02-28T04:00:53;11.80;;;6.88;;
36715;SDS011;22699;51.034;3.730;2023-02-28T04:03:24;9.77;;;6.43;;
36715;SDS011;22699;51.034;3.730;2023-02-28T04:05:53;9.13;;;7.15;;
36715;SDS011;22699;51.034;3.730;2023-02-28T04:08:20;9.88;;;6.70;;
36715;SDS011;22699;51.034;3.730;2023-02-28T04:10:49;8.70;;;7.10;;
36715;SDS011;22699;51.034;3.730;2023-02-28T04:13:22;8.25;;;7.22;;
36715;SDS011;22699;51.034;3.730;2023-02-28T04:15:47;10.57;;;6.75;;
36715;SDS011;22699;51.034;3.730;2023-02-28T04:18:13;10.02;;;6.88;;
36715;SDS011;22699;51.034;3.730;2023-02-28T04:20:39;10.60;;;7.68;;
36715;SDS011;22699;51.034;3.730;2023-02-28T04:23:04;9.30;;;6.90;;
36715;SDS011;22699;51.034;3.730;2023-02-28T04:25:30;12.23;;;7.18;;
36715;SDS011;22699;51.034;3.730;2023-02-28T04:27:55;8.48;;;6.53;;
36715;SDS011;22699;51.034;3.730;2023-02-28T04:30:22;8.40;;;6.40;;
36715;SDS011;22699;51.034;3.730;2023-02-28T04:32:47;15.15;;;6.72;;
36715;SDS011;22699;51.034;3.730;2023-02-28T04:35:13;11.20;;;7.20;;
36715;SDS011;22699;51.034;3.730;2023-02-28T04:37:40;14.40;;;7.72;;
36715;SDS011;22699;51.034;3.730;2023-02-28T04:40:05;8.35;;;6.18;;
36715;SDS011;22699;51.034;3.730;2023-02-28T04:42:33;8.55;;;7.15;;
36715;SDS011;22699;51.034;3.730;2023-02-28T04:45:04;6.40;;;5.53;;
36715;SDS011;22699;51.034;3.730;2023-02-28T04:47:30;9.13;;;7.22;;
36715;SDS011;22699;51.034;3.730;2023-02-28T04:49:56;8.82;;;6.65;;
36715;SDS011;22699;51.034;3.730;2023-02-28T04:52:21;9.20;;;6.47;;
36715;SDS011;22699;51.034;3.730;2023-02-28T04:54:47;8.23;;;5.63;;
36715;SDS011;22699;51.034;3.730;2023-02-28T04:57:14;8.82;;;6.05;;
36715;SDS011;22699;51.034;3.730;2023-02-28T04:59:40;9.02;;;5.95;;
36715;SDS011;22699;51.034;3.730;2023-02-28T05:02:06;7.53;;;5.95;;
36715;SDS011;22699;51.034;3.730;2023-02-28T05:04:32;6.95;;;5.47;;
36715;SDS011;22699;51.034;3.730;2023-02-28T05:06:59;7.05;;;6.07;;
36715;SDS011;22699;51.034;3.730;2023-02-28T05:09:25;7.72;;;5.85;;
36715;SDS011;22699;51.034;3.730;2023-02-28T05:11:51;8.20;;;5.95;;
36715;SDS011;22699;51.034;3.730;2023-02-28T05:14:16;8.60;;;6.07;;
36715;SDS011;22699;51.034;3.730;2023-02-28T05:16:42;7.50;;;5.85;;
36715;SDS011;22699;51.034;3.730;2023-02-28T05:19:09;10.23;;;6.07;;
36715;SDS011;22699;51.034;3.730;2023-02-28T05:21:35;7.07;;;5.93;;
36715;SDS011;22699;51.034;3.730;2023-02-28T05:24:04;11.02;;;6.50;;
36715;SDS011;22699;51.034;3.730;2023-02-28T05:26:36;10.00;;;6.45;;
36715;SDS011;22699;51.034;3.730;2023-02-28T05:29:03;11.13;;;6.63;;
36715;SDS011;22699;51.034;3.730;2023-02-28T05:31:28;9.38;;;6.85;;
36715;SDS011;22699;51.034;3.730;2023-02-28T05:33:56;7.38;;;6.05;;
36715;SDS011;22699;51.034;3.730;2023-02-28T05:36:22;9.13;;;7.32;;
36715;SDS011;22699;51.034;3.730;2023-02-28T05:38:48;10.55;;;6.28;;
36715;SDS011;22699;51.034;3.730;2023-02-28T05:41:17;8.05;;;6.47;;
36715;SDS011;22699;51.034;3.730;2023-02-28T05:43:45;10.10;;;7.00;;
36715;SDS011;22699;51.034;3.730;2023-02-28T05:46:11;9.25;;;6.28;;
36715;SDS011;22699;51.034;3.730;2023-02-28T05:48:40;8.88;;;6.70;;
36715;SDS011;22699;51.034;3.730;2023-02-28T05:51:07;8.70;;;6.85;;
36715;SDS011;22699;51.034;3.730;2023-02-28T05:53:33;9.93;;;5.97;;
36715;SDS011;22699;51.034;3.730;2023-02-28T05:55:59;10.02;;;6.55;;
36715;SDS011;22699;51.034;3.730;2023-02-28T05:58:25;8.63;;;6.13;;
36715;SDS011;22699;51.034;3.730;2023-02-28T06:00:56;7.72;;;6.18;;
36715;SDS011;22699;51.034;3.730;2023-02-28T06:03:23;7.53;;;6.18;;
36715;SDS011;22699;51.034;3.730;2023-02-28T06:05:49;10.35;;;6.50;;
36715;SDS011;22699;51.034;3.730;2023-02-28T06:08:15;10.52;;;6.05;;
36715;SDS011;22699;51.034;3.730;2023-02-28T06:10:41;9.93;;;6.93;;
36715;SDS011;22699;51.034;3.730;2023-02-28T06:13:06;10.98;;;6.38;;
36715;SDS011;22699;51.034;3.730;2023-02-28T06:15:32;11.68;;;6.22;;
36715;SDS011;22699;51.034;3.730;2023-02-28T06:17:58;9.77;;;5.90;;
36715;SDS011;22699;51.034;3.730;2023-02-28T06:20:24;12.55;;;6.72;;
36715;SDS011;22699;51.034;3.730;2023-02-28T06:22:54;9.35;;;5.65;;
36715;SDS011;22699;51.034;3.730;2023-02-28T06:25:21;7.88;;;5.60;;
36715;SDS011;22699;51.034;3.730;2023-02-28T06:27:47;9.27;;;6.60;;
36715;SDS011;22699;51.034;3.730;2023-02-28T06:30:14;11.07;;;6.32;;
36715;SDS011;22699;51.034;3.730;2023-02-28T06:32:40;11.27;;;6.55;;
36715;SDS011;22699;51.034;3.730;2023-02-28T06:35:05;8.63;;;6.18;;
36715;SDS011;22699;51.034;3.730;2023-02-28T06:37:32;8.98;;;5.60;;
36715;SDS011;22699;51.034;3.730;2023-02-28T06:39:57;12.57;;;6.47;;
36715;SDS011;22699;51.034;3.730;2023-02-28T06:42:24;10.00;;;6.35;;
36715;SDS011;22699;51.034;3.730;2023-02-28T06:44:53;11.20;;;6.50;;
36715;SDS011;22699;51.034;3.730;2023-02-28T06:47:20;9.73;;;6.72;;
36715;SDS011;22699;51.034;3.730;2023-02-28T06:49:48;9.85;;;6.32;;
36715;SDS011;22699;51.034;3.730;2023-02-28T06:52:14;10.45;;;6.55;;
36715;SDS011;22699;51.034;3.730;2023-02-28T06:54:39;12.75;;;6.43;;
36715;SDS011;22699;51.034;3.730;2023-02-28T06:57:06;8.65;;;5.90;;
36715;SDS011;22699;51.034;3.730;2023-02-28T06:59:31;8.38;;;6.43;;
36715;SDS011;22699;51.034;3.730;2023-02-28T07:01:57;8.43;;;6.53;;
36715;SDS011;22699;51.034;3.730;2023-02-28T07:04:23;13.18;;;6.80;;
36715;SDS011;22699;51.034;3.730;2023-02-28T07:06:48;9.02;;;5.65;;
36715;SDS011;22699;51.034;3.730;2023-02-28T07:09:14;10.25;;;6.70;;
36715;SDS011;22699;51.034;3.730;2023-02-28T07:11:40;15.27;;;6.13;;
36715;SDS011;22699;51.034;3.730;2023-02-28T07:14:08;8.68;;;6.15;;
36715;SDS011;22699;51.034;3.730;2023-02-28T07:16:35;7.88;;;5.50;;
36715;SDS011;22699;51.034;3.730;2023-02-28T07:19:01;9.50;;;5.70;;
36715;SDS011;22699;51.034;3.730;2023-02-28T07:21:27;7.68;;;5.22;;
36715;SDS011;22699;51.034;3.730;2023-02-28T07:23:53;8.48;;;6.18;;
36715;SDS011;22699;51.034;3.730;2023-02-28T07:26:19;10.93;;;6.10;;
36715;SDS011;22699;51.034;3.730;2023-02-28T07:28:46;8.10;;;5.38;;
36715;SDS011;22699;51.034;3.730;2023-02-28T07:31:12;7.05;;;5.18;;
36715;SDS011;22699;51.034;3.730;2023-02-28T07:33:39;9.68;;;5.45;;
36715;SDS011;22699;51.034;3.730;2023-02-28T07:36:12;6.25;;;5.25;;
36715;SDS011;22699;51.034;3.730;2023-02-28T07:38:41;9.27;;;5.68;;
36715;SDS011;22699;51.034;3.730;2023-02-28T07:41:13;16.58;;;4.57;;
36715;SDS011;22699;51.034;3.730;2023-02-28T07:43:40;9.13;;;5.22;;
36715;SDS011;22699;51.034;3.730;2023-02-28T07:46:06;11.65;;;5.18;;
36715;SDS011;22699;51.034;3.730;2023-02-28T07:48:34;6.75;;;5.60;;
36715;SDS011;22699;51.034;3.730;2023-02-28T07:51:00;12.50;;;5.53;;
36715;SDS011;22699;51.034;3.730;2023-02-28T07:53:27;9.10;;;4.82;;
36715;SDS011;22699;51.034;3.730;2023-02-28T07:55:55;10.68;;;6.07;;
36715;SDS011;22699;51.034;3.730;2023-02-28T07:58:21;9.18;;;4.72;;
36715;SDS011;22699;51.034;3.730;2023-02-28T08:00:47;8.63;;;4.82;;
36715;SDS011;22699;51.034;3.730;2023-02-28T08:03:13;7.95;;;4.53;;
36715;SDS011;22699;51.034;3.730;2023-02-28T08:05:41;7.53;;;4.82;;
36715;SDS011;22699;51.034;3.730;2023-02-28T08:08:07;5.82;;;4.90;;
36715;SDS011;22699;51.034;3.730;2023-02-28T08:10:34;6.43;;;4.28;;
36715;SDS011;22699;51.034;3.730;2023-02-28T08:13:00;7.18;;;4.57;;
36715;SDS011;22699;51.034;3.730;2023-02-28T08:15:26;7.05;;;4.22;;
36715;SDS011;22699;51.034;3.730;2023-02-28T08:17:51;9.73;;;4.60;;
36715;SDS011;22699;51.034;3.730;2023-02-28T08:20:17;7.57;;;4.32;;
36715;SDS011;22699;51.034;3.730;2023-02-28T08:22:43;7.13;;;4.70;;
36715;SDS011;22699;51.034;3.730;2023-02-28T08:25:08;8.05;;;5.00;;
36715;SDS011;22699;51.034;3.730;2023-02-28T08:27:34;7.32;;;4.40;;
36715;SDS011;22699;51.034;3.730;2023-02-28T08:30:01;8.68;;;4.63;;
36715;SDS011;22699;51.034;3.730;2023-02-28T08:32:26;9.02;;;4.68;;
36715;SDS011;22699;51.034;3.730;2023-02-28T08:34:52;7.03;;;4.18;;
36715;SDS011;22699;51.034;3.730;2023-02-28T08:37:17;7.07;;;4.93;;
36715;SDS011;22699;51.034;3.730;2023-02-28T08:39:43;8.90;;;3.85;;
36715;SDS011;22699;51.034;3.730;2023-02-28T08:42:09;7.18;;;4.72;;
36715;SDS011;22699;51.034;3.730;2023-02-28T08:44:34;5.82;;;4.32;;
36715;SDS011;22699;51.034;3.730;2023-02-28T08:47:00;9.15;;;4.75;;
36715;SDS011;22699;51.034;3.730;2023-02-28T08:49:25;7.13;;;4.35;;
36715;SDS011;22699;51.034;3.730;2023-02-28T08:51:51;8.35;;;5.28;;
36715;SDS011;22699;51.034;3.730;2023-02-28T08:54:17;6.85;;;5.00;;
36715;SDS011;22699;51.034;3.730;2023-02-28T08:56:45;11.18;;;5.85;;
36715;SDS011;22699;51.034;3.730;2023-02-28T08:59:12;8.15;;;4.78;;
36715;SDS011;22699;51.034;3.730;2023-02-28T09:01:38;7.15;;;4.25;;
36715;SDS011;22699;51.034;3.730;2023-02-28T09:04:03;9.10;;;4.20;;
36715;SDS011;22699;51.034;3.730;2023-02-28T09:06:31;7.75;;;4.20;;
36715;SDS011;22699;51.034;3.730;2023-02-28T09:08:57;10.57;;;5.30;;
36715;SDS011;22699;51.034;3.730;2023-02-28T09:11:24;6.10;;;4.45;;
36715;SDS011;22699;51.034;3.730;2023-02-28T09:13:50;7.28;;;4.45;;
36715;SDS011;22699;51.034;3.730;2023-02-28T09:16:15;5.78;;;4.25;;
36715;SDS011;22699;51.034;3.730;2023-02-28T09:18:42;11.38;;;4.50;;
36715;SDS011;22699;51.034;3.730;2023-02-28T09:21:10;8.05;;;4.40;;
36715;SDS011;22699;51.034;3.730;2023-02-28T09:23:49;4.75;;;4.15;;
36715;SDS011;22699;51.034;3.730;2023-02-28T09:26:24;5.95;;;5.00;;
36715;SDS011;22699;51.034;3.730;2023-02-28T09:28:51;7.20;;;4.38;;
36715;SDS011;22699;51.034;3.730;2023-02-28T09:31:19;8.00;;;4.20;;
36715;SDS011;22699;51.034;3.730;2023-02-28T09:33:50;8.27;;;3.88;;
36715;SDS011;22699;51.034;3.730;2023-02-28T09:36:17;5.65;;;4.07;;
36715;SDS011;22699;51.034;3.730;2023-02-28T09:38:43;6.40;;;3.83;;
36715;SDS011;22699;51.034;3.730;2023-02-28T09:41:13;9.18;;;3.92;;
36715;SDS011;22699;51.034;3.730;2023-02-28T09:43:51;5.35;;;3.10;;
36715;SDS011;22699;51.034;3.730;2023-02-28T09:49:08;7.38;;;3.80;;
36715;SDS011;22699;51.034;3.730;2023-02-28T09:54:16;5.07;;;3.50;;
36715;SDS011;22699;51.034;3.730;2023-02-28T09:56:51;4.05;;;3.28;;
36715;SDS011;22699;51.034;3.730;2023-02-28T10:04:44;8.10;;;3.80;;
36715;SDS011;22699;51.034;3.730;2023-02-28T10:10:19;6.57;;;3.47;;
36715;SDS011;22699;51.034;3.730;2023-02-28T10:12:54;4.63;;;3.10;;
36715;SDS011;22699;51.034;3.730;2023-02-28T10:15:24;6.03;;;3.58;;
36715;SDS011;22699;51.034;3.730;2023-02-28T10:17:58;4.57;;;2.90;;
36715;SDS011;22699;51.034;3.730;2023-02-28T10:20:32;7.38;;;3.00;;
36715;SDS011;22699;51.034;3.730;2023-02-28T10:25:57;7.13;;;2.95;;
36715;SDS011;22699;51.034;3.730;2023-02-28T10:28:26;5.65;;;3.28;;
36715;SDS011;22699;51.034;3.730;2023-02-28T10:30:55;3.67;;;2.95;;
36715;SDS011;22699;51.034;3.730;2023-02-28T10:33:33;4.35;;;2.92;;
36715;SDS011;22699;51.034;3.730;2023-02-28T10:36:01;6.10;;;2.90;;
36715;SDS011;22699;51.034;3.730;2023-02-28T10:38:33;4.68;;;3.00;;
36715;SDS011;22699;51.034;3.730;2023-02-28T10:43:29;6.10;;;2.47;;
36715;SDS011;22699;51.034;3.730;2023-02-28T10:45:56;2.33;;;1.95;;
36715;SDS011;22699;51.034;3.730;2023-02-28T10:51:05;4.07;;;2.28;;
36715;SDS011;22699;51.034;3.730;2023-02-28T10:53:49;4.70;;;2.10;;
36715;SDS011;22699;51.034;3.730;2023-02-28T10:56:18;4.43;;;1.98;;
36715;SDS011;22699;51.034;3.730;2023-02-28T10:58:50;3.00;;;2.20;;
36715;SDS011;22699;51.034;3.730;2023-02-28T11:04:31;2.35;;;1.85;;
36715;SDS011;22699;51.034;3.730;2023-02-28T11:09:38;5.70;;;1.92;;
36715;SDS011;22699;51.034;3.730;2023-02-28T11:12:06;3.78;;;2.10;;
36715;SDS011;22699;51.034;3.730;2023-02-28T11:15:00;3.15;;;2.13;;
36715;SDS011;22699;51.034;3.730;2023-02-28T11:17:31;2.85;;;1.92;;
36715;SDS011;22699;51.034;3.730;2023-02-28T11:20:06;5.38;;;2.15;;
36715;SDS011;22699;51.034;3.730;2023-02-28T11:22:43;4.88;;;2.42;;
36715;SDS011;22699;51.034;3.730;2023-02-28T11:25:32;3.45;;;2.00;;
36715;SDS011;22699;51.034;3.730;2023-02-28T11:27:59;3.13;;;2.00;;
36715;SDS011;22699;51.034;3.730;2023-02-28T11:30:32;4.22;;;2.13;;
36715;SDS011;22699;51.034;3.730;2023-02-28T11:36:16;3.88;;;2.50;;
36715;SDS011;22699;51.034;3.730;2023-02-28T11:38:46;4.00;;;2.28;;
36715;SDS011;22699;51.034;3.730;2023-02-28T11:56:24;4.82;;;1.85;;
36715;SDS011;22699;51.034;3.730;2023-02-28T12:14:14;8.35;;;1.77;;
36715;SDS011;22699;51.034;3.730;2023-02-28T12:22:54;3.85;;;2.10;;
36715;SDS011;22699;51.034;3.730;2023-02-28T12:25:53;3.00;;;2.00;;
36715;SDS011;22699;51.034;3.730;2023-02-28T12:28:47;3.47;;;2.08;;
36715;SDS011;22699;51.034;3.730;2023-02-28T12:31:28;34.13;;;16.38;;
36715;SDS011;22699;51.034;3.730;2023-02-28T12:34:12;5.45;;;2.90;;
36715;SDS011;22699;51.034;3.730;2023-02-28T12:36:44;2.35;;;2.15;;
36715;SDS011;22699;51.034;3.730;2023-02-28T12:42:35;10.10;;;4.63;;
36715;SDS011;22699;51.034;3.730;2023-02-28T12:45:43;4.15;;;1.85;;
36715;SDS011;22699;51.034;3.730;2023-02-28T12:47:49;5.85;;;1.98;;
36715;SDS011;22699;51.034;3.730;2023-02-28T12:50:21;3.45;;;1.60;;
36715;SDS011;22699;51.034;3.730;2023-02-28T12:58:36;2.42;;;1.60;;
36715;SDS011;22699;51.034;3.730;2023-02-28T13:09:38;2.03;;;1.45;;
36715;SDS011;22699;51.034;3.730;2023-02-28T13:12:17;3.45;;;1.52;;
36715;SDS011;22699;51.034;3.730;2023-02-28T13:14:43;2.65;;;1.73;;
36715;SDS011;22699;51.034;3.730;2023-02-28T13:17:11;2.97;;;2.03;;
36715;SDS011;22699;51.034;3.730;2023-02-28T13:24:54;1.75;;;1.42;;
36715;SDS011;22699;51.034;3.730;2023-02-28T13:27:22;4.38;;;1.60;;
36715;SDS011;22699;51.034;3.730;2023-02-28T13:33:21;5.80;;;2.30;;
36715;SDS011;22699;51.034;3.730;2023-02-28T13:36:27;2.42;;;1.50;;
36715;SDS011;22699;51.034;3.730;2023-02-28T13:39:00;2.05;;;1.40;;
36715;SDS011;22699;51.034;3.730;2023-02-28T13:43:59;4.03;;;1.58;;
36715;SDS011;22699;51.034;3.730;2023-02-28T13:46:28;4.10;;;1.67;;
36715;SDS011;22699;51.034;3.730;2023-02-28T13:48:55;3.05;;;1.50;;
36715;SDS011;22699;51.034;3.730;2023-02-28T13:54:19;4.93;;;1.48;;
36715;SDS011;22699;51.034;3.730;2023-02-28T14:00:21;2.22;;;1.35;;
36715;SDS011;22699;51.034;3.730;2023-02-28T14:02:56;3.03;;;2.10;;
36715;SDS011;22699;51.034;3.730;2023-02-28T14:05:33;4.00;;;1.88;;
36715;SDS011;22699;51.034;3.730;2023-02-28T14:08:03;4.32;;;2.00;;
36715;SDS011;22699;51.034;3.730;2023-02-28T14:10:39;2.75;;;1.70;;
36715;SDS011;22699;51.034;3.730;2023-02-28T14:16:14;5.85;;;2.03;;
36715;SDS011;22699;51.034;3.730;2023-02-28T14:19:28;6.78;;;2.05;;
36715;SDS011;22699;51.034;3.730;2023-02-28T14:24:26;4.68;;;2.08;;
36715;SDS011;22699;51.034;3.730;2023-02-28T14:37:45;3.55;;;2.47;;
36715;SDS011;22699;51.034;3.730;2023-02-28T14:40:17;3.45;;;2.05;;
36715;SDS011;22699;51.034;3.730;2023-02-28T14:42:57;6.30;;;2.60;;
36715;SDS011;22699;51.034;3.730;2023-02-28T14:45:31;3.78;;;2.05;;
36715;SDS011;22699;51.034;3.730;2023-02-28T14:48:03;3.15;;;2.70;;
36715;SDS011;22699;51.034;3.730;2023-02-28T14:50:34;5.05;;;2.63;;
36715;SDS011;22699;51.034;3.730;2023-02-28T14:53:01;8.35;;;3.25;;
36715;SDS011;22699;51.034;3.730;2023-02-28T14:55:33;4.32;;;2.40;;
36715;SDS011;22699;51.034;3.730;2023-02-28T14:58:04;5.95;;;2.72;;
36715;SDS011;22699;51.034;3.730;2023-02-28T15:00:35;5.05;;;2.50;;
36715;SDS011;22699;51.034;3.730;2023-02-28T15:03:23;8.32;;;2.97;;
36715;SDS011;22699;51.034;3.730;2023-02-28T15:05:58;11.02;;;2.65;;
36715;SDS011;22699;51.034;3.730;2023-02-28T15:08:28;4.88;;;2.58;;
36715;SDS011;22699;51.034;3.730;2023-02-28T15:11:04;10.27;;;2.67;;
36715;SDS011;22699;51.034;3.730;2023-02-28T15:13:43;7.50;;;2.20;;
36715;SDS011;22699;51.034;3.730;2023-02-28T15:16:20;8.48;;;2.28;;
36715;SDS011;22699;51.034;3.730;2023-02-28T15:19:35;3.33;;;2.20;;
36715;SDS011;22699;51.034;3.730;2023-02-28T15:21:57;3.22;;;2.33;;
36715;SDS011;22699;51.034;3.730;2023-02-28T15:27:29;6.38;;;3.00;;
36715;SDS011;22699;51.034;3.730;2023-02-28T15:30:05;3.38;;;2.30;;
36715;SDS011;22699;51.034;3.730;2023-02-28T15:32:34;4.27;;;2.40;;
36715;SDS011;22699;51.034;3.730;2023-02-28T15:35:26;8.05;;;2.53;;
36715;SDS011;22699;51.034;3.730;2023-02-28T15:37:55;9.82;;;2.65;;
36715;SDS011;22699;51.034;3.730;2023-02-28T15:40:44;4.32;;;2.28;;
36715;SDS011;22699;51.034;3.730;2023-02-28T15:43:29;6.80;;;2.90;;
36715;SDS011;22699;51.034;3.730;2023-02-28T15:46:09;2.55;;;2.35;;
36715;SDS011;22699;51.034;3.730;2023-02-28T15:48:51;3.63;;;2.72;;
36715;SDS011;22699;51.034;3.730;2023-02-28T15:51:28;3.58;;;2.53;;
36715;SDS011;22699;51.034;3.730;2023-02-28T15:54:04;4.60;;;2.80;;
36715;SDS011;22699;51.034;3.730;2023-02-28T15:56:45;2.95;;;2.53;;
36715;SDS011;22699;51.034;3.730;2023-02-28T15:59:20;5.20;;;3.00;;
36715;SDS011;22699;51.034;3.730;2023-02-28T16:02:01;3.88;;;2.35;;
36715;SDS011;22699;51.034;3.730;2023-02-28T16:07:31;4.60;;;2.55;;
36715;SDS011;22699;51.034;3.730;2023-02-28T16:09:58;3.83;;;2.35;;
36715;SDS011;22699;51.034;3.730;2023-02-28T16:12:31;5.30;;;2.80;;
36715;SDS011;22699;51.034;3.730;2023-02-28T16:17:55;3.72;;;2.50;;
36715;SDS011;22699;51.034;3.730;2023-02-28T16:20:28;3.78;;;2.53;;
36715;SDS011;22699;51.034;3.730;2023-02-28T16:22:55;5.88;;;3.35;;
36715;SDS011;22699;51.034;3.730;2023-02-28T16:25:26;5.78;;;2.40;;
36715;SDS011;22699;51.034;3.730;2023-02-28T16:27:59;4.70;;;2.65;;
36715;SDS011;22699;51.034;3.730;2023-02-28T16:30:26;3.80;;;2.75;;
36715;SDS011;22699;51.034;3.730;2023-02-28T16:32:56;4.53;;;2.60;;
36715;SDS011;22699;51.034;3.730;2023-02-28T16:35:24;5.03;;;2.63;;
36715;SDS011;22699;51.034;3.730;2023-02-28T16:37:50;5.63;;;2.90;;
36715;SDS011;22699;51.034;3.730;2023-02-28T16:40:20;3.60;;;2.80;;
36715;SDS011;22699;51.034;3.730;2023-02-28T16:42:48;3.58;;;2.40;;
36715;SDS011;22699;51.034;3.730;2023-02-28T16:45:20;5.10;;;2.70;;
36715;SDS011;22699;51.034;3.730;2023-02-28T16:47:50;6.03;;;3.55;;
36715;SDS011;22699;51.034;3.730;2023-02-28T16:50:20;6.85;;;3.20;;
36715;SDS011;22699;51.034;3.730;2023-02-28T16:52:48;4.55;;;2.85;;
36715;SDS011;22699;51.034;3.730;2023-02-28T16:55:15;4.85;;;2.97;;
36715;SDS011;22699;51.034;3.730;2023-02-28T16:57:41;3.88;;;2.85;;
36715;SDS011;22699;51.034;3.730;2023-02-28T17:00:08;5.50;;;2.88;;
36715;SDS011;22699;51.034;3.730;2023-02-28T17:02:37;4.33;;;2.33;;
36715;SDS011;22699;51.034;3.730;2023-02-28T17:05:03;3.92;;;2.90;;
36715;SDS011;22699;51.034;3.730;2023-02-28T17:07:30;4.57;;;3.28;;
36715;SDS011;22699;51.034;3.730;2023-02-28T17:09:55;4.85;;;3.17;;
36715;SDS011;22699;51.034;3.730;2023-02-28T17:12:21;4.43;;;3.60;;
36715;SDS011;22699;51.034;3.730;2023-02-28T17:14:49;5.63;;;3.25;;
36715;SDS011;22699;51.034;3.730;2023-02-28T17:17:18;6.53;;;3.40;;
36715;SDS011;22699;51.034;3.730;2023-02-28T17:19:47;4.68;;;2.78;;
36715;SDS011;22699;51.034;3.730;2023-02-28T17:22:13;6.85;;;3.20;;
36715;SDS011;22699;51.034;3.730;2023-02-28T17:24:39;6.07;;;3.63;;
36715;SDS011;22699;51.034;3.730;2023-02-28T17:27:04;6.25;;;3.90;;
36715;SDS011;22699;51.034;3.730;2023-02-28T17:29:31;4.15;;;2.88;;
36715;SDS011;22699;51.034;3.730;2023-02-28T17:31:57;4.63;;;3.22;;
36715;SDS011;22699;51.034;3.730;2023-02-28T17:34:23;6.40;;;3.50;;
36715;SDS011;22699;51.034;3.730;2023-02-28T17:36:49;4.32;;;3.88;;
36715;SDS011;22699;51.034;3.730;2023-02-28T17:39:16;6.28;;;4.30;;